메인 페이지
METAR-TAF:

METAR-TAF

공항 :

테구시갈파, 온두라스

위도: 14-03N, 경도: 087-13W, 고도: 994m

현재 날씨관측

예보는 24분 전, 15:00시(UTC)에 발표되었습니다.
10kt
온도 21°C
습도 78%
기압 1022 hPa
시정: 8000m
고도 800ft 상공 구름 조금
고도 2600ft 상공 구름 많음

METAR: MHTG 111500Z 36010KT 8000 FEW008 BKN026 21/17 Q1022 A3018 NOSIG

시각: 09:24 (15:24 UTC)

예보

예보는 5 시간 14분 전, 10:10시(UTC)에 발표되었습니다.
예보 대상 시간: 11일 12시부터 12일 12시까지 (UTC)
4kt
시정 10km 이상
고도 1200ft 상공 구름 조금
고도 2600ft 상공 구름 많음
전환 중
11일 14시부터 11일 16시까지 (UTC)
동북동8kt
고도 2800ft 상공 구름 조금
고도 8000ft 상공 구름 보통
일시적
11일 18시부터 12일 00시까지 (UTC)
시정: 8000m
고도 2800ft 상공 구름 많음, 타워링 적운.
시계 내 소나기
전환 중
12일 01시부터 12일 03시까지 (UTC)
6kt
고도 1200ft 상공 구름 조금
고도 2500ft 상공 구름 많음

TAF: MHTG 111010Z 1112/1212 36004KT 9999 FEW012 BKN026 TX26/1120Z TN16/1112Z BECMG 1114/1116 06008KT FEW028 SCT080 TEMPO 1118/1200 8000 VCSH BKN028TCU BECMG 1201/1203 36006KT FEW012 BKN025

4,000개 이상의 공항 관측 자료 및 예보 (METAR 및 TAF 보고).

지도상에서 검색 가능한 기상관측소가 노란 점과 빨간 점으로 표시되어 있습니다.

기상관측소 명을 보려면 표시 위로 마우스를 이동하세요.

날씨 관측과 예보를 보려면 클릭하세요.

지도 변경 : 확대하려면 엑스 표시가 있는 녹색 버튼, 축소하려면 빼기 표시가 있는 녹색 버튼, 다음 페이지의 지도를 보려면 녹색 화살표를 클릭하세요.


METAR-TAF: